createdAt,value
2022-09-09T00:01:37.717Z,100475.28
2022-09-09T00:04:15.292Z,100469.63
2022-09-09T00:06:48.733Z,100477.78
2022-09-09T00:09:20.597Z,100477.84
2022-09-09T00:11:53.739Z,100473.16
2022-09-09T00:14:33.872Z,100476.63
2022-09-09T00:17:10.219Z,100482.19
2022-09-09T00:19:46.705Z,100475.47
2022-09-09T00:22:20.014Z,100474.47
2022-09-09T00:24:54.386Z,100471.50
2022-09-09T00:27:31.000Z,100470.44
2022-09-09T00:30:03.924Z,100476.59
2022-09-09T00:32:36.680Z,100468.38
2022-09-09T00:35:16.940Z,100465.13
2022-09-09T00:37:48.283Z,100469.63
2022-09-09T00:40:25.120Z,100467.25
2022-09-09T00:43:05.442Z,100469.13
2022-09-09T00:45:59.998Z,100471.78
2022-09-09T00:48:41.302Z,100473.53
2022-09-09T00:51:17.460Z,100468.81
2022-09-09T00:54:08.111Z,100474.66
2022-09-09T00:56:45.641Z,100472.81
2022-09-09T00:59:28.589Z,100473.84
2022-09-09T01:01:58.303Z,100462.69
2022-09-09T01:04:35.030Z,100463.22
2022-09-09T01:07:14.628Z,100458.13
2022-09-09T01:09:53.713Z,100461.06
2022-09-09T01:12:30.563Z,100467.66
2022-09-09T01:15:05.507Z,100470.34
2022-09-09T01:17:38.700Z,100470.31
2022-09-09T01:20:18.051Z,100453.88
2022-09-09T01:22:57.650Z,100453.88
2022-09-09T01:25:33.286Z,100450.34
2022-09-09T01:28:07.245Z,100450.25
2022-09-09T01:30:37.452Z,100454.03
2022-09-09T01:33:07.571Z,100453.53
2022-09-09T01:35:55.453Z,100456.97
2022-09-09T01:38:25.970Z,100445.88
2022-09-09T01:40:55.669Z,100460.63
2022-09-09T01:43:27.471Z,100447.66
2022-09-09T01:45:58.156Z,100447.16
2022-09-09T01:48:27.073Z,100441.53
2022-09-09T01:50:55.696Z,100456.06
2022-09-09T01:53:25.208Z,100445.22
2022-09-09T01:56:04.572Z,100443.56
2022-09-09T01:58:45.654Z,100448.16
2022-09-09T02:01:30.157Z,100449.59
2022-09-09T02:04:01.373Z,100444.22
2022-09-09T02:06:35.176Z,100444.97
2022-09-09T02:09:06.591Z,100445.78
2022-09-09T02:11:35.875Z,100448.31
2022-09-09T02:14:10.697Z,100447.63
2022-09-09T02:16:44.783Z,100445.66
2022-09-09T02:19:17.178Z,100438.72
2022-09-09T02:21:47.859Z,100447.41
2022-09-09T02:24:17.951Z,100438.72
2022-09-09T02:26:50.181Z,100440.66
2022-09-09T02:29:25.568Z,100435.69
2022-09-09T02:31:57.536Z,100446.34
2022-09-09T02:34:28.769Z,100447.63
2022-09-09T02:36:59.612Z,100437.66
2022-09-09T02:39:28.467Z,100442.88
2022-09-09T02:41:57.402Z,100442.72
2022-09-09T02:44:27.388Z,100439.38
2022-09-09T02:47:20.556Z,100437.31
2022-09-09T02:49:59.560Z,100429.88
2022-09-09T02:52:35.482Z,100434.19
2022-09-09T02:55:12.653Z,100429.81
2022-09-09T02:57:43.717Z,100428.88
2022-09-09T03:00:14.895Z,100431.34
2022-09-09T03:02:44.264Z,100428.59
2022-09-09T03:05:14.120Z,100421.47
2022-09-09T03:07:42.762Z,100428.25
2022-09-09T03:10:11.764Z,100421.47
2022-09-09T03:12:40.735Z,100421.16
2022-09-09T03:15:10.886Z,100429.09
2022-09-09T03:17:41.125Z,100427.59
2022-09-09T03:20:10.236Z,100427.94
2022-09-09T03:22:38.903Z,100429.00
2022-09-09T03:25:08.771Z,100430.44
2022-09-09T03:27:37.467Z,100425.09
2022-09-09T03:30:06.839Z,100420.81
2022-09-09T03:32:35.442Z,100426.56
2022-09-09T03:35:05.714Z,100418.09
2022-09-09T03:37:34.307Z,100426.09
2022-09-09T03:40:03.220Z,100431.28
2022-09-09T03:42:32.905Z,100427.66
2022-09-09T03:45:01.430Z,100428.59
2022-09-09T03:47:30.135Z,100422.34
2022-09-09T03:49:58.695Z,100425.13
2022-09-09T03:52:28.687Z,100423.03
2022-09-09T03:54:57.699Z,100422.56
2022-09-09T03:57:26.059Z,100421.78
2022-09-09T03:59:54.288Z,100420.50
2022-09-09T04:02:22.678Z,100415.94
2022-09-09T04:04:50.960Z,100429.72
2022-09-09T04:07:19.203Z,100412.72
2022-09-09T04:09:49.043Z,100419.69
2022-09-09T04:12:17.705Z,100418.47
2022-09-09T04:14:45.950Z,100413.69
2022-09-09T04:17:14.247Z,100426.91
2022-09-09T04:19:43.314Z,100425.91
2022-09-09T04:22:11.644Z,100427.31
2022-09-09T04:24:39.847Z,100427.78
2022-09-09T04:27:09.444Z,100427.69
2022-09-09T04:29:37.680Z,100426.41
2022-09-09T04:32:06.337Z,100425.47
2022-09-09T04:34:34.631Z,100434.34
2022-09-09T04:37:02.921Z,100427.84
2022-09-09T04:39:31.153Z,100416.09
2022-09-09T04:41:59.440Z,100416.88
2022-09-09T04:44:29.014Z,100426.06
2022-09-09T04:46:57.276Z,100424.13
2022-09-09T04:49:25.498Z,100431.13
2022-09-09T04:51:53.989Z,100418.53
2022-09-09T04:54:22.431Z,100426.16
2022-09-09T04:56:52.690Z,100428.84
2022-09-09T04:59:20.905Z,100426.16
2022-09-09T05:01:51.181Z,100432.03
2022-09-09T05:04:20.488Z,100425.50
2022-09-09T05:06:49.357Z,100427.16
2022-09-09T05:09:17.587Z,100421.22
2022-09-09T05:11:45.815Z,100419.56
2022-09-09T05:14:14.036Z,100420.66
2022-09-09T05:16:43.113Z,100431.22
2022-09-09T05:19:12.753Z,100428.97
2022-09-09T05:21:42.624Z,100429.47
2022-09-09T05:24:10.986Z,100422.50
2022-09-09T05:26:39.337Z,100418.47
2022-09-09T05:29:07.797Z,100413.06
2022-09-09T05:31:36.179Z,100411.63
2022-09-09T05:34:04.605Z,100413.72
2022-09-09T05:36:34.332Z,100412.53
2022-09-09T05:39:02.586Z,100408.72
2022-09-09T05:41:31.390Z,100409.84
2022-09-09T05:44:02.101Z,100409.59
2022-09-09T05:46:30.475Z,100419.75
2022-09-09T05:48:59.327Z,100415.03
2022-09-09T05:51:31.452Z,100418.13
2022-09-09T05:54:01.163Z,100422.25
2022-09-09T05:56:31.317Z,100415.69
2022-09-09T05:59:01.086Z,100421.44
2022-09-09T06:01:32.334Z,100425.00
2022-09-09T06:04:01.925Z,100427.88
2022-09-09T06:06:37.865Z,100429.50
2022-09-09T06:09:10.870Z,100423.28
2022-09-09T06:11:41.618Z,100430.28
2022-09-09T06:14:10.602Z,100431.84
2022-09-09T06:16:39.705Z,100433.16
2022-09-09T06:19:08.097Z,100429.72
2022-09-09T06:21:38.991Z,100436.91
2022-09-09T06:24:09.405Z,100438.22
2022-09-09T06:26:41.636Z,100444.81
2022-09-09T06:29:10.288Z,100446.06
2022-09-09T06:31:39.716Z,100437.56
2022-09-09T06:34:10.357Z,100439.72
2022-09-09T06:36:40.666Z,100435.53
2022-09-09T06:39:14.811Z,100441.72
2022-09-09T06:41:44.594Z,100437.59
2022-09-09T06:44:13.753Z,100438.78
2022-09-09T06:46:42.365Z,100437.72
2022-09-09T06:49:10.792Z,100437.72
2022-09-09T06:51:43.836Z,100446.16
2022-09-09T06:54:14.434Z,100443.59
2022-09-09T06:56:44.617Z,100452.28
2022-09-09T06:59:14.031Z,100443.94
2022-09-09T07:01:45.030Z,100449.19
2022-09-09T07:04:14.636Z,100443.16
2022-09-09T07:06:47.593Z,100453.34
2022-09-09T07:09:18.573Z,100450.84
2022-09-09T07:11:49.338Z,100455.28
2022-09-09T07:14:18.173Z,100452.53
2022-09-09T07:16:47.695Z,100455.63
2022-09-09T07:19:16.470Z,100450.94
2022-09-09T07:21:46.123Z,100452.63
2022-09-09T07:24:16.670Z,100455.00
2022-09-09T07:26:46.732Z,100466.44
2022-09-09T07:29:19.823Z,100462.69
2022-09-09T07:31:49.402Z,100462.97
2022-09-09T07:34:17.901Z,100467.50
2022-09-09T07:36:47.329Z,100470.25
2022-09-09T07:39:18.450Z,100476.75
2022-09-09T07:41:48.917Z,100468.72
2022-09-09T07:44:19.444Z,100469.28
2022-09-09T07:46:48.619Z,100487.75
2022-09-09T07:49:22.774Z,100484.50
2022-09-09T07:51:54.815Z,100485.59
2022-09-09T07:54:24.737Z,100486.66
2022-09-09T07:56:53.860Z,100489.28
2022-09-09T07:59:22.245Z,100491.75
2022-09-09T08:01:55.555Z,100495.78
2022-09-09T08:04:27.078Z,100499.63
2022-09-09T08:06:58.277Z,100492.44
2022-09-09T08:09:30.331Z,100490.44
2022-09-09T08:11:59.561Z,100487.66
2022-09-09T08:14:27.878Z,100474.41
2022-09-09T08:16:57.240Z,100489.97
2022-09-09T08:19:25.713Z,100484.09
2022-09-09T08:21:55.138Z,100487.16
2022-09-09T08:24:24.168Z,100484.06
2022-09-09T08:26:54.640Z,100496.31
2022-09-09T08:29:22.895Z,100492.16
2022-09-09T08:31:55.546Z,100490.72
2022-09-09T08:34:24.103Z,100502.03
2022-09-09T08:36:53.907Z,100500.47
2022-09-09T08:39:23.894Z,100490.03
2022-09-09T08:42:30.906Z,100489.56
2022-09-09T08:45:17.062Z,100483.28
2022-09-09T08:47:56.643Z,100482.88
2022-09-09T08:50:29.038Z,100495.28
2022-09-09T08:53:04.998Z,100489.63
2022-09-09T08:55:44.014Z,100486.59
2022-09-09T08:58:17.840Z,100486.88
2022-09-09T09:01:18.176Z,100484.53
2022-09-09T09:03:57.957Z,100485.50
2022-09-09T09:06:44.380Z,100487.06
2022-09-09T09:09:23.270Z,100496.22
2022-09-09T09:11:55.975Z,100499.88
2022-09-09T09:17:00.342Z,100502.13
2022-09-09T09:19:31.099Z,100509.06
2022-09-09T09:22:08.164Z,100496.25
2022-09-09T09:24:48.011Z,100499.03
2022-09-09T09:27:21.733Z,100490.81
2022-09-09T09:30:21.132Z,100499.00
2022-09-09T09:32:45.928Z,100500.75
2022-09-09T09:35:15.408Z,100497.25
2022-09-09T09:40:35.125Z,100511.66
2022-09-09T09:43:08.861Z,100509.88
2022-09-09T09:45:55.217Z,100511.59
2022-09-09T09:48:34.719Z,100507.59
2022-09-09T09:51:10.239Z,100509.09
2022-09-09T09:53:40.471Z,100505.94
2022-09-09T09:56:11.820Z,100505.94
2022-09-09T09:58:52.352Z,100507.78
2022-09-09T10:01:28.780Z,100505.41
2022-09-09T10:04:00.937Z,100505.53
2022-09-09T10:06:34.116Z,100504.00
2022-09-09T10:09:05.330Z,100512.13
2022-09-09T10:11:49.296Z,100508.47
2022-09-09T10:14:23.799Z,100503.91
2022-09-09T10:17:12.405Z,100500.47
2022-09-09T10:19:53.390Z,100492.78
2022-09-09T10:22:29.487Z,100495.03
2022-09-09T10:25:33.554Z,100491.31
2022-09-09T10:28:37.036Z,100483.97
2022-09-09T10:31:23.848Z,100484.75
2022-09-09T10:34:02.914Z,100488.47
2022-09-09T10:36:31.318Z,100484.06
2022-09-09T10:39:20.610Z,100491.84
2022-09-09T10:42:01.081Z,100484.03
2022-09-09T10:45:05.581Z,100483.06
2022-09-09T10:48:10.378Z,100484.25
2022-09-09T10:51:05.423Z,100483.59
2022-09-09T10:53:45.100Z,100484.19
2022-09-09T10:56:17.403Z,100482.47
2022-09-09T10:58:54.546Z,100469.31
2022-09-09T11:01:27.657Z,100467.19
2022-09-09T11:04:03.907Z,100472.28
2022-09-09T11:06:43.485Z,100461.72
2022-09-09T11:09:18.714Z,100469.25
2022-09-09T11:11:54.912Z,100463.13
2022-09-09T11:14:35.462Z,100461.59
2022-09-09T11:17:13.052Z,100467.47
2022-09-09T11:19:44.716Z,100464.84
2022-09-09T11:22:24.850Z,100464.97
2022-09-09T11:25:01.282Z,100472.78
2022-09-09T11:27:40.355Z,100470.09
2022-09-09T11:30:44.119Z,100464.09
2022-09-09T11:33:39.086Z,100471.97
2022-09-09T11:36:48.860Z,100467.47
2022-09-09T11:39:55.857Z,100465.03
2022-09-09T11:42:26.608Z,100461.38
2022-09-09T11:44:55.940Z,100470.63
2022-09-09T11:47:31.315Z,100469.94
2022-09-09T11:50:28.379Z,100466.94
2022-09-09T11:53:21.955Z,100470.50
2022-09-09T11:56:08.100Z,100464.84
2022-09-09T11:58:42.875Z,100468.44
2022-09-09T12:01:40.223Z,100460.13
2022-09-09T12:04:31.675Z,100461.41
2022-09-09T12:07:07.446Z,100462.25
2022-09-09T12:09:52.792Z,100458.63
2022-09-09T12:12:33.443Z,100464.84
2022-09-09T12:15:29.842Z,100474.06
2022-09-09T12:18:03.835Z,100468.66
2022-09-09T12:20:40.011Z,100462.78
2022-09-09T12:23:30.664Z,100472.66
2022-09-09T12:26:28.065Z,100466.03
2022-09-09T12:29:13.992Z,100479.03
2022-09-09T12:31:48.735Z,100474.50
2022-09-09T12:34:21.665Z,100481.78
2022-09-09T12:36:57.893Z,100491.50
2022-09-09T12:39:34.882Z,100495.31
2022-09-09T12:42:05.286Z,100492.59
2022-09-09T12:44:34.918Z,100489.28
2022-09-09T12:47:05.803Z,100486.06
2022-09-09T12:49:39.418Z,100480.66
2022-09-09T12:52:15.255Z,100487.59
2022-09-09T12:54:48.791Z,100487.59
2022-09-09T12:57:18.024Z,100488.16
2022-09-09T12:59:49.191Z,100497.47
2022-09-09T13:02:29.409Z,100515.22
2022-09-09T13:05:15.501Z,100508.53
2022-09-09T13:07:44.150Z,100502.88
2022-09-09T13:10:18.022Z,100504.38
2022-09-09T13:12:54.245Z,100485.16
2022-09-09T13:15:28.424Z,100485.38
2022-09-09T13:17:59.670Z,100481.13
2022-09-09T13:20:28.628Z,100471.03
2022-09-09T13:22:58.912Z,100477.63
2022-09-09T13:25:29.786Z,100474.47
2022-09-09T13:28:03.432Z,100471.72
2022-09-09T13:30:37.321Z,100464.47
2022-09-09T13:33:24.226Z,100467.91
2022-09-09T13:35:56.485Z,100456.97
2022-09-09T13:38:27.627Z,100453.75
2022-09-09T13:41:04.233Z,100455.69
2022-09-09T13:43:37.034Z,100452.41
2022-09-09T13:46:28.570Z,100446.16
2022-09-09T13:48:58.054Z,100453.47
2022-09-09T13:51:38.065Z,100450.56
2022-09-09T13:54:08.290Z,100450.00
2022-09-09T13:56:37.253Z,100452.84
2022-09-09T13:59:07.647Z,100450.78
2022-09-09T14:01:38.064Z,100440.78
2022-09-09T14:04:07.538Z,100447.84
2022-09-09T14:06:38.256Z,100440.50
2022-09-09T14:09:07.259Z,100440.69
2022-09-09T14:11:35.829Z,100433.72
2022-09-09T14:14:04.133Z,100434.59
2022-09-09T14:16:32.382Z,100426.38
2022-09-09T14:19:02.294Z,100433.72
2022-09-09T14:21:30.608Z,100444.03
2022-09-09T14:23:59.769Z,100433.75
2022-09-09T14:26:29.860Z,100431.44
2022-09-09T14:28:58.501Z,100433.13
2022-09-09T14:31:27.665Z,100436.00
2022-09-09T14:33:55.948Z,100443.63
2022-09-09T14:36:25.600Z,100469.00
2022-09-09T14:38:54.293Z,100497.03
2022-09-09T14:41:23.881Z,100491.84
2022-09-09T14:43:53.249Z,100490.19
2022-09-09T14:46:23.041Z,100491.31
2022-09-09T14:48:52.035Z,100495.66
2022-09-09T14:51:23.203Z,100483.50
2022-09-09T14:53:55.019Z,100478.50
2022-09-09T14:56:25.897Z,100473.72
2022-09-09T14:58:57.350Z,100475.69
2022-09-09T15:01:28.382Z,100469.94
2022-09-09T15:04:00.048Z,100467.81
2022-09-09T15:06:31.142Z,100472.78
2022-09-09T15:09:01.383Z,100458.97
2022-09-09T15:11:33.081Z,100456.25
2022-09-09T15:14:01.357Z,100456.31
2022-09-09T15:16:30.728Z,100446.63
2022-09-09T15:19:02.529Z,100449.16
2022-09-09T15:21:33.415Z,100439.50
2022-09-09T15:24:03.215Z,100441.75
2022-09-09T15:26:32.237Z,100433.53
2022-09-09T15:29:01.201Z,100437.41
2022-09-09T15:31:32.894Z,100432.06
2022-09-09T15:34:03.141Z,100443.16
2022-09-09T15:36:34.028Z,100434.06
2022-09-09T15:39:07.002Z,100430.41
2022-09-09T15:41:35.696Z,100425.28
2022-09-09T15:44:04.682Z,100437.19
2022-09-09T15:46:37.088Z,100434.22
2022-09-09T15:49:11.535Z,100444.41
2022-09-09T15:51:44.505Z,100435.09
2022-09-09T15:54:18.513Z,100432.91
2022-09-09T15:56:49.745Z,100442.09
2022-09-09T15:59:18.426Z,100446.22
2022-09-09T16:01:46.818Z,100446.94
2022-09-09T16:04:16.691Z,100445.88
2022-09-09T16:06:45.442Z,100455.41
2022-09-09T16:09:15.164Z,100454.50
2022-09-09T16:11:43.426Z,100463.00
2022-09-09T16:14:12.128Z,100459.78
2022-09-09T16:16:40.501Z,100452.47
2022-09-09T16:19:12.531Z,100449.81
2022-09-09T16:21:43.612Z,100456.91
2022-09-09T16:24:16.555Z,100463.78
2022-09-09T16:26:47.750Z,100450.66
2022-09-09T16:29:18.343Z,100451.28
2022-09-09T16:31:47.746Z,100462.09
2022-09-09T16:34:17.315Z,100450.22
2022-09-09T16:36:46.570Z,100460.72
2022-09-09T16:39:20.302Z,100457.47
2022-09-09T16:41:50.839Z,100453.97
2022-09-09T16:44:20.430Z,100451.53
2022-09-09T16:46:55.566Z,100448.72
2022-09-09T16:49:26.523Z,100453.41
2022-09-09T16:51:54.812Z,100457.94
2022-09-09T16:54:26.215Z,100455.22
2022-09-09T16:56:54.622Z,100451.03
2022-09-09T16:59:24.240Z,100453.97
2022-09-09T17:01:53.855Z,100460.91
2022-09-09T17:04:25.284Z,100466.59
2022-09-09T17:06:55.900Z,100467.56
2022-09-09T17:09:29.893Z,100462.63
2022-09-09T17:11:58.489Z,100470.75
2022-09-09T17:14:26.765Z,100472.31
2022-09-09T17:16:55.028Z,100470.34
2022-09-09T17:19:23.303Z,100476.94
2022-09-09T17:22:16.778Z,100463.50
2022-09-09T17:24:41.470Z,100472.16
2022-09-09T17:27:10.052Z,100468.50
2022-09-09T17:29:38.611Z,100473.22
2022-09-09T17:32:08.391Z,100471.34
2022-09-09T17:34:37.397Z,100470.44
2022-09-09T17:37:07.032Z,100469.38
2022-09-09T17:39:35.790Z,100473.44
2022-09-09T17:42:05.679Z,100481.28
2022-09-09T17:44:34.265Z,100479.38
2022-09-09T17:47:04.955Z,100482.59
2022-09-09T17:49:33.247Z,100481.97
2022-09-09T17:52:01.520Z,100490.13
2022-09-09T17:54:29.821Z,100493.69
2022-09-09T17:56:58.695Z,100481.69
2022-09-09T17:59:28.428Z,100498.25
2022-09-09T18:01:56.739Z,100501.16
2022-09-09T18:04:25.260Z,100496.97
2022-09-09T18:06:55.652Z,100500.16
2022-09-09T18:09:26.977Z,100500.50
2022-09-09T18:11:58.034Z,100499.50
2022-09-09T18:14:31.339Z,100502.56
2022-09-09T18:17:00.527Z,100504.91
2022-09-09T18:19:34.522Z,100507.53
2022-09-09T18:22:04.920Z,100508.22
2022-09-09T18:24:33.700Z,100501.97
2022-09-09T18:27:02.081Z,100507.53
2022-09-09T18:29:31.787Z,100506.38
2022-09-09T18:32:00.022Z,100513.03
2022-09-09T18:34:30.171Z,100512.84
2022-09-09T18:36:58.766Z,100516.94
2022-09-09T18:39:30.076Z,100519.50
2022-09-09T18:42:01.643Z,100521.06
2022-09-09T18:44:34.568Z,100524.63
2022-09-09T18:47:03.609Z,100530.56
2022-09-09T18:49:33.310Z,100538.19
2022-09-09T18:52:02.774Z,100530.56
2022-09-09T18:54:33.477Z,100538.28
2022-09-09T18:57:02.260Z,100535.03
2022-09-09T18:59:32.554Z,100545.13
2022-09-09T19:02:00.875Z,100543.47
2022-09-09T19:04:29.724Z,100548.72
2022-09-09T19:06:58.822Z,100553.81
2022-09-09T19:09:29.378Z,100560.47
2022-09-09T19:11:58.248Z,100562.25
2022-09-09T19:14:26.873Z,100565.31
2022-09-09T19:16:56.554Z,100566.97
2022-09-09T19:19:27.744Z,100564.53
2022-09-09T19:21:57.526Z,100576.41
2022-09-09T19:24:28.889Z,100580.22
2022-09-09T19:27:01.679Z,100583.28
2022-09-09T19:29:33.171Z,100572.78
2022-09-09T19:34:53.458Z,100576.31
2022-09-09T19:37:22.532Z,100588.72
2022-09-09T19:39:51.412Z,100584.84
2022-09-09T19:42:19.985Z,100589.38
2022-09-09T19:44:48.307Z,100586.84
2022-09-09T19:47:18.694Z,100586.13
2022-09-09T19:49:47.727Z,100587.06
2022-09-09T19:52:17.600Z,100585.16
2022-09-09T19:54:46.797Z,100587.44
2022-09-09T19:57:15.557Z,100580.94
2022-09-09T19:59:44.007Z,100579.88
2022-09-09T20:02:15.566Z,100585.75
2022-09-09T20:04:45.619Z,100580.41
2022-09-09T20:07:14.906Z,100588.41
2022-09-09T20:09:43.266Z,100592.75
2022-09-09T20:12:11.552Z,100591.41
2022-09-09T20:14:40.359Z,100596.66
2022-09-09T20:17:10.097Z,100605.97
2022-09-09T20:19:39.984Z,100598.69
2022-09-09T20:22:09.988Z,100603.13
2022-09-09T20:24:38.265Z,100614.00
2022-09-09T20:27:08.160Z,100617.03
2022-09-09T20:29:37.202Z,100609.84
2022-09-09T20:32:06.807Z,100623.47
2022-09-09T20:34:35.096Z,100618.75
2022-09-09T20:37:04.717Z,100615.88
2022-09-09T20:39:35.699Z,100619.53
2022-09-09T20:42:04.423Z,100623.13
2022-09-09T20:44:33.026Z,100622.06
2022-09-09T20:47:06.247Z,100627.09
2022-09-09T20:49:36.079Z,100625.69
2022-09-09T20:52:05.177Z,100618.94
2022-09-09T20:54:36.028Z,100617.78
2022-09-09T20:57:04.343Z,100619.50
2022-09-09T20:59:32.854Z,100621.78
2022-09-09T21:02:02.348Z,100622.47
2022-09-09T21:04:31.296Z,100618.38
2022-09-09T21:06:59.587Z,100620.28
2022-09-09T21:09:27.908Z,100623.53
2022-09-09T21:11:57.532Z,100614.56
2022-09-09T21:14:27.352Z,100619.84
2022-09-09T21:16:55.758Z,100622.44
2022-09-09T21:19:25.049Z,100614.19
2022-09-09T21:21:53.332Z,100614.88
2022-09-09T21:24:21.847Z,100619.38
2022-09-09T21:26:50.392Z,100619.59
2022-09-09T21:29:20.025Z,100617.56
2022-09-09T21:31:48.370Z,100624.31
2022-09-09T21:34:18.468Z,100611.16
2022-09-09T21:36:46.730Z,100619.50
2022-09-09T21:39:15.489Z,100612.22
2022-09-09T21:41:43.735Z,100616.41
2022-09-09T21:44:14.421Z,100618.41
2022-09-09T21:46:44.396Z,100618.41
2022-09-09T21:49:12.761Z,100617.13
2022-09-09T21:51:41.030Z,100616.78
2022-09-09T21:54:09.332Z,100617.50
2022-09-09T21:56:37.562Z,100626.97
2022-09-09T21:59:05.838Z,100629.22
2022-09-09T22:01:34.380Z,100634.00
2022-09-09T22:04:04.577Z,100624.63
2022-09-09T22:06:32.831Z,100629.25
2022-09-09T22:09:02.009Z,100624.81
2022-09-09T22:11:31.329Z,100633.09
2022-09-09T22:13:59.770Z,100629.94
2022-09-09T22:16:28.027Z,100625.06
2022-09-09T22:18:59.221Z,100623.25
2022-09-09T22:21:32.977Z,100614.63
2022-09-09T22:24:03.822Z,100618.44
2022-09-09T22:26:36.241Z,100610.47
2022-09-09T22:29:05.640Z,100615.59
2022-09-09T22:31:34.996Z,100622.41
2022-09-09T22:34:04.074Z,100610.66
2022-09-09T22:36:34.299Z,100621.44
2022-09-09T22:39:02.565Z,100615.63
2022-09-09T22:41:32.052Z,100617.75
2022-09-09T22:44:00.519Z,100614.81
2022-09-09T22:46:29.333Z,100617.59
2022-09-09T22:48:58.215Z,100613.78
2022-09-09T22:51:26.451Z,100615.63
2022-09-09T22:53:57.848Z,100620.56
2022-09-09T22:56:26.454Z,100627.59
2022-09-09T22:58:56.486Z,100626.28
2022-09-09T23:01:27.466Z,100617.97
2022-09-09T23:03:59.257Z,100619.38
2022-09-09T23:06:29.095Z,100615.03
2022-09-09T23:09:02.297Z,100609.63
2022-09-09T23:11:33.305Z,100620.09
2022-09-09T23:14:03.909Z,100620.91
2022-09-09T23:16:35.366Z,100619.31
2022-09-09T23:19:04.848Z,100619.03
2022-09-09T23:21:34.085Z,100625.13
2022-09-09T23:24:05.784Z,100622.81
2022-09-09T23:26:34.705Z,100628.53
2022-09-09T23:29:03.528Z,100623.16
2022-09-09T23:31:36.428Z,100621.22
2022-09-09T23:34:05.908Z,100629.84
2022-09-09T23:36:34.676Z,100633.22
2022-09-09T23:39:07.561Z,100638.25
2022-09-09T23:41:37.111Z,100633.44
2022-09-09T23:44:06.298Z,100638.53
2022-09-09T23:46:35.920Z,100642.97
2022-09-09T23:49:09.644Z,100651.91
2022-09-09T23:51:38.892Z,100651.47
2022-09-09T23:54:09.959Z,100648.19
2022-09-09T23:56:41.372Z,100651.13
2022-09-09T23:59:10.556Z,100655.63
